Time;durP1;ratioP1;P1;durP2;ratioP2;P2;SDS_P1;SDS_P2;PMS_P1;PMS_P2;Temp;Humidity;BMP_temperature;BMP_pressure;BME280_temperature;BME280_humidity;BME280_pressure;Samples;Min_cycle;Max_cycle;Signal;HPM_P1;HPM_P2
2022/09/20 00:01:09;;;;;;;1.50;1.40;;;12.30;99.90;;;;;;4964129;28;20561;-90
2022/09/20 00:03:41;;;;;;;1.83;1.53;;;12.30;99.90;;;;;;4963437;28;20419;-91
2022/09/20 00:06:09;;;;;;;1.90;1.50;;;12.30;99.90;;;;;;4967056;28;20441;-90
2022/09/20 00:08:35;;;;;;;1.63;1.53;;;12.20;99.90;;;;;;4961983;28;20793;-90
2022/09/20 00:11:05;;;;;;;1.30;1.20;;;12.20;99.90;;;;;;4960839;28;20541;-90
2022/09/20 00:13:32;;;;;;;1.70;1.53;;;12.30;99.90;;;;;;4962453;28;20430;-92
2022/09/20 00:15:58;;;;;;;2.05;1.58;;;12.20;99.90;;;;;;4978204;28;21002;-93
2022/09/20 00:18:25;;;;;;;1.40;1.30;;;12.20;99.90;;;;;;4978118;28;20585;-90
2022/09/20 00:20:52;;;;;;;1.77;1.63;;;12.20;99.90;;;;;;4961170;28;20528;-93
2022/09/20 00:23:18;;;;;;;2.20;1.47;;;12.20;99.90;;;;;;4960599;28;20422;-89
2022/09/20 00:25:45;;;;;;;1.63;1.53;;;12.20;99.90;;;;;;4963180;28;20806;-90
2022/09/20 00:28:11;;;;;;;1.80;1.70;;;12.20;99.90;;;;;;4985502;28;20412;-88
2022/09/20 00:30:38;;;;;;;1.67;1.40;;;12.20;99.90;;;;;;4968029;28;20505;-90
2022/09/20 00:33:03;;;;;;;2.08;1.50;;;12.10;99.90;;;;;;4981963;28;20381;-92
2022/09/20 00:35:30;;;;;;;2.10;1.60;;;12.10;99.90;;;;;;4980331;28;20585;-93
2022/09/20 00:37:55;;;;;;;1.07;1.00;;;12.10;99.90;;;;;;4971318;28;20211;-91
2022/09/20 00:40:22;;;;;;;3.03;1.73;;;12.10;99.90;;;;;;4967475;28;20458;-89
2022/09/20 00:42:49;;;;;;;1.50;1.20;;;12.10;99.90;;;;;;4962015;28;20427;-93
2022/09/20 00:45:19;;;;;;;1.47;1.40;;;12.20;99.90;;;;;;4961878;28;20474;-90
2022/09/20 00:47:59;;;;;;;2.70;1.77;;;12.20;99.90;;;;;;4979283;28;20422;-90
2022/09/20 00:50:44;;;;;;;1.40;1.30;;;12.20;99.90;;;;;;4964076;28;20438;-90
2022/09/20 00:53:16;;;;;;;2.40;1.57;;;12.30;99.90;;;;;;4961857;28;20428;-92
2022/09/20 00:55:46;;;;;;;2.23;1.67;;;12.30;99.90;;;;;;4979170;28;20481;-90
2022/09/20 00:58:13;;;;;;;1.63;1.50;;;12.30;99.90;;;;;;4962157;28;20947;-90
2022/09/20 01:00:39;;;;;;;1.07;1.07;;;12.30;99.90;;;;;;4962984;28;20955;-91
2022/09/20 01:03:08;;;;;;;1.53;1.00;;;12.40;99.90;;;;;;4980515;28;20923;-92
2022/09/20 01:05:36;;;;;;;1.97;1.30;;;12.40;99.90;;;;;;4964160;28;20948;-89
2022/09/20 01:08:02;;;;;;;1.40;1.30;;;12.40;99.90;;;;;;4966792;28;20496;-89
2022/09/20 01:10:28;;;;;;;1.60;1.50;;;12.40;99.90;;;;;;4978224;28;20438;-93
2022/09/20 01:12:54;;;;;;;2.07;1.40;;;12.40;99.90;;;;;;4960034;28;20778;-92
2022/09/20 01:15:22;;;;;;;1.47;1.37;;;12.50;99.90;;;;;;4959776;28;20263;-91
2022/09/20 01:17:51;;;;;;;1.57;1.10;;;12.50;99.90;;;;;;4953983;28;20279;-90
2022/09/20 01:20:22;;;;;;;1.90;1.50;;;12.50;99.90;;;;;;4962354;28;20474;-90
2022/09/20 01:23:02;;;;;;;1.43;1.33;;;12.50;99.90;;;;;;4970294;28;20414;-90
2022/09/20 01:25:42;;;;;;;1.37;1.27;;;12.50;99.90;;;;;;4960536;28;20861;-93
2022/09/20 01:28:08;;;;;;;1.27;1.17;;;12.50;99.90;;;;;;4961250;28;20505;-94
2022/09/20 01:31:07;;;;;;;3.60;1.37;;;12.50;99.90;;;;;;4963049;28;20421;-88
2022/09/20 01:33:48;;;;;;;1.80;0.97;;;12.50;99.90;;;;;;4939700;28;20200;-92
2022/09/20 01:36:51;;;;;;;2.37;1.20;;;12.50;99.90;;;;;;4960914;28;21009;-93
2022/09/20 01:39:16;;;;;;;2.23;1.00;;;12.50;99.90;;;;;;4931302;28;20529;-90
2022/09/20 01:41:56;;;;;;;1.70;1.20;;;12.50;99.90;;;;;;4960621;28;20430;-90
2022/09/20 01:44:37;;;;;;;1.17;1.07;;;12.50;99.90;;;;;;4961552;28;20202;-90
2022/09/20 01:47:31;;;;;;;2.30;1.77;;;12.50;99.90;;;;;;4979943;28;20460;-90
2022/09/20 01:50:03;;;;;;;1.20;1.10;;;12.50;99.90;;;;;;4982447;28;20859;-90
2022/09/20 01:52:46;;;;;;;1.30;1.20;;;12.50;99.90;;;;;;4966800;28;20846;-93
2022/09/20 01:55:49;;;;;;;1.60;1.40;;;12.50;99.90;;;;;;4976147;28;20465;-93
2022/09/20 01:58:46;;;;;;;1.90;1.37;;;12.50;99.90;;;;;;4959707;28;20430;-90
2022/09/20 02:01:53;;;;;;;1.20;1.10;;;12.50;99.90;;;;;;4960900;28;20847;-90
2022/09/20 02:04:37;;;;;;;1.33;1.00;;;12.50;99.90;;;;;;4898822;28;20548;-92
2022/09/20 02:07:12;;;;;;;3.00;1.00;;;12.50;99.90;;;;;;4959671;28;20434;-92
2022/09/20 02:09:55;;;;;;;1.27;1.17;;;12.50;99.90;;;;;;4976937;28;20544;-92
2022/09/20 02:12:30;;;;;;;1.37;1.10;;;12.50;99.90;;;;;;4960819;28;20500;-90
2022/09/20 02:15:21;;;;;;;3.23;1.37;;;12.50;99.90;;;;;;4960643;28;20504;-92
2022/09/20 02:18:10;;;;;;;1.43;1.30;;;12.50;99.90;;;;;;4960967;28;20906;-93
2022/09/20 02:20:39;;;;;;;1.37;1.27;;;12.50;99.90;;;;;;4961230;28;20971;-92
2022/09/20 02:23:23;;;;;;;1.33;1.20;;;12.50;99.90;;;;;;4965066;28;20864;-89
2022/09/20 02:26:01;;;;;;;1.53;1.43;;;12.50;99.90;;;;;;4963688;28;20458;-91
2022/09/20 02:28:36;;;;;;;1.80;1.40;;;12.50;99.90;;;;;;4975974;28;20411;-92
2022/09/20 02:31:15;;;;;;;4.23;1.50;;;12.50;99.90;;;;;;4958554;28;20464;-89
2022/09/20 02:33:55;;;;;;;1.40;1.30;;;12.60;99.90;;;;;;4976034;28;20394;-90
2022/09/20 02:36:46;;;;;;;1.73;1.63;;;12.60;99.90;;;;;;4959743;28;20512;-90
2022/09/20 02:39:20;;;;;;;2.57;1.20;;;12.60;99.90;;;;;;4975471;28;20470;-92
2022/09/20 02:41:51;;;;;;;2.77;1.83;;;12.60;99.90;;;;;;4959277;28;20462;-90
2022/09/20 02:44:32;;;;;;;3.00;1.20;;;12.60;99.90;;;;;;4958925;28;20439;-93
2022/09/20 02:47:20;;;;;;;1.20;1.10;;;12.60;99.90;;;;;;4964024;28;20509;-92
2022/09/20 02:50:17;;;;;;;1.00;0.93;;;12.60;99.90;;;;;;4965224;28;20456;-91
2022/09/20 02:52:57;;;;;;;2.50;1.13;;;12.60;99.90;;;;;;4981294;28;20525;-93
2022/09/20 02:55:45;;;;;;;1.70;1.60;;;12.70;99.90;;;;;;4963499;28;20473;-93
2022/09/20 02:58:43;;;;;;;1.20;1.10;;;12.70;99.90;;;;;;4964246;28;20913;-93
2022/09/20 03:01:09;;;;;;;2.70;1.30;;;12.70;99.90;;;;;;4981722;28;20430;-91
2022/09/20 03:03:49;;;;;;;3.20;1.40;;;12.60;99.90;;;;;;4969667;28;20414;-91
2022/09/20 03:06:30;;;;;;;1.43;1.30;;;12.60;99.90;;;;;;4968845;28;20195;-92
2022/09/20 03:09:10;;;;;;;1.30;1.20;;;12.60;99.90;;;;;;4964430;28;20567;-93
2022/09/20 03:11:50;;;;;;;1.77;1.20;;;12.70;99.90;;;;;;4972622;28;20438;-90
2022/09/20 03:14:29;;;;;;;2.90;1.27;;;12.60;99.90;;;;;;4982436;28;20521;-90
2022/09/20 03:17:32;;;;;;;1.87;1.17;;;12.60;99.90;;;;;;4980516;28;20417;-90
2022/09/20 03:20:18;;;;;;;1.10;1.00;;;12.60;99.90;;;;;;4980077;28;20468;-93
2022/09/20 03:22:52;;;;;;;1.87;1.10;;;12.60;99.90;;;;;;4962630;28;20445;-93
2022/09/20 03:25:38;;;;;;;1.47;1.27;;;12.60;99.90;;;;;;4980659;28;20433;-90
2022/09/20 03:28:22;;;;;;;1.73;1.47;;;12.60;99.90;;;;;;4965246;28;20445;-92
2022/09/20 03:31:09;;;;;;;1.80;1.37;;;12.60;99.90;;;;;;4981186;28;20442;-90
2022/09/20 03:33:46;;;;;;;1.03;0.93;;;12.50;99.90;;;;;;4963199;28;20477;-92
2022/09/20 03:36:40;;;;;;;2.00;1.20;;;12.50;99.90;;;;;;4980715;28;20482;-90
2022/09/20 03:39:06;;;;;;;1.53;1.30;;;12.50;99.90;;;;;;4982143;28;20500;-89
2022/09/20 03:41:54;;;;;;;1.47;1.37;;;12.50;99.90;;;;;;4966480;28;20951;-92
2022/09/20 03:44:46;;;;;;;1.90;1.17;;;12.50;99.90;;;;;;4966831;28;20204;-92
2022/09/20 03:47:30;;;;;;;1.10;1.00;;;12.50;99.90;;;;;;4991971;28;20458;-92
2022/09/20 03:50:18;;;;;;;2.03;1.10;;;12.50;99.90;;;;;;4982940;28;20525;-92
2022/09/20 03:52:56;;;;;;;3.90;1.00;;;12.50;99.90;;;;;;4967429;28;20446;-90
2022/09/20 03:55:37;;;;;;;5.17;1.60;;;12.50;99.90;;;;;;4979117;28;20465;-90
2022/09/20 03:58:18;;;;;;;1.63;1.20;;;12.50;99.90;;;;;;4978638;28;20415;-89
2022/09/20 04:01:13;;;;;;;1.27;1.17;;;12.40;99.90;;;;;;4979323;28;20453;-90
2022/09/20 04:04:11;;;;;;;6.60;1.47;;;12.40;99.90;;;;;;4962298;28;20453;-90
2022/09/20 04:06:36;;;;;;;1.33;1.23;;;12.40;99.90;;;;;;4938350;28;20433;-90
2022/09/20 04:09:28;;;;;;;1.43;1.13;;;12.40;99.90;;;;;;4980325;28;20418;-92
2022/09/20 04:12:17;;;;;;;1.33;1.23;;;12.40;99.90;;;;;;4980505;28;20188;-92
2022/09/20 04:15:04;;;;;;;1.50;1.40;;;12.40;99.90;;;;;;4962472;28;20493;-90
2022/09/20 04:18:19;;;;;;;2.20;1.50;;;12.50;99.90;;;;;;4979739;28;20434;-93
2022/09/20 04:21:04;;;;;;;1.20;1.10;;;12.50;99.90;;;;;;4959048;28;20442;-92
2022/09/20 04:23:48;;;;;;;4.30;1.83;;;12.50;99.90;;;;;;4983792;28;20491;-92
2022/09/20 04:26:26;;;;;;;1.23;1.10;;;12.60;99.90;;;;;;4987197;28;20931;-93
2022/09/20 04:29:18;;;;;;;2.30;1.57;;;12.60;99.90;;;;;;4961390;28;20433;-91
2022/09/20 04:31:52;;;;;;;1.40;1.30;;;12.60;99.90;;;;;;4962643;28;20532;-92
2022/09/20 04:36:27;;;;;;;2.43;2.07;;;12.60;99.90;;;;;;4959197;28;20449;-93
2022/09/20 04:37:28;;;;;;;4.00;2.20;;;12.60;99.90;;;;;;4980544;28;20830;-92
2022/09/20 04:40:38;;;;;;;2.67;2.00;;;12.60;99.90;;;;;;4978386;28;20513;-91
2022/09/20 04:43:38;;;;;;;4.30;2.20;;;12.60;99.90;;;;;;4978772;28;20430;-90
2022/09/20 04:46:34;;;;;;;2.20;1.93;;;12.60;99.90;;;;;;4980037;28;20554;-90
2022/09/20 04:49:32;;;;;;;2.50;1.40;;;12.60;99.90;;;;;;4976546;28;20927;-91
2022/09/20 04:52:30;;;;;;;3.17;1.50;;;12.60;99.90;;;;;;4975852;28;20477;-92
2022/09/20 04:55:34;;;;;;;1.30;1.20;;;12.60;99.90;;;;;;4978204;28;20496;-92
2022/09/20 04:58:32;;;;;;;1.60;1.40;;;12.60;99.90;;;;;;4981710;28;20574;-90
2022/09/20 05:01:16;;;;;;;2.10;1.90;;;12.70;99.90;;;;;;4981634;28;20455;-90
2022/09/20 05:03:53;;;;;;;2.13;1.47;;;12.80;99.90;;;;;;4963478;28;20985;-93
2022/09/20 05:06:56;;;;;;;2.23;1.50;;;12.80;99.90;;;;;;4976139;28;20468;-90
2022/09/20 05:09:25;;;;;;;1.40;1.30;;;12.80;99.90;;;;;;4975646;28;20442;-93
2022/09/20 05:11:55;;;;;;;1.60;1.50;;;12.90;99.90;;;;;;4979051;28;20438;-93
2022/09/20 05:14:55;;;;;;;2.13;1.57;;;13.00;99.90;;;;;;4977786;28;20456;-93
2022/09/20 05:17:50;;;;;;;1.60;1.47;;;13.00;99.90;;;;;;4959059;29;20526;-92
2022/09/20 05:20:51;;;;;;;1.40;1.30;;;13.10;99.90;;;;;;4970646;28;20450;-92
2022/09/20 05:23:41;;;;;;;2.13;1.60;;;13.10;99.90;;;;;;4974140;28;20446;-90
2022/09/20 05:26:09;;;;;;;1.50;1.40;;;13.10;99.90;;;;;;4976607;28;20466;-90
2022/09/20 05:28:58;;;;;;;1.27;1.20;;;13.10;99.90;;;;;;4975727;28;20419;-89
2022/09/20 05:31:39;;;;;;;1.70;1.40;;;13.10;99.90;;;;;;4972040;28;20952;-93
2022/09/20 05:34:23;;;;;;;2.20;2.00;;;13.10;99.90;;;;;;4958380;28;20447;-93
2022/09/20 05:37:02;;;;;;;1.47;1.37;;;13.10;99.90;;;;;;4943881;29;20486;-90
2022/09/20 05:39:32;;;;;;;2.13;1.40;;;13.10;99.90;;;;;;4952852;28;20492;-90
2022/09/20 05:42:15;;;;;;;1.50;1.40;;;13.10;99.90;;;;;;4974722;28;20779;-92
2022/09/20 05:44:58;;;;;;;1.70;1.20;;;13.10;99.90;;;;;;4954784;28;20537;-89
2022/09/20 05:47:34;;;;;;;2.00;1.43;;;13.10;99.90;;;;;;4955111;28;20446;-90
2022/09/20 05:50:11;;;;;;;1.37;1.27;;;13.20;99.90;;;;;;4972825;28;20479;-93
2022/09/20 05:52:57;;;;;;;1.90;1.80;;;13.20;99.90;;;;;;4954426;28;20434;-90
2022/09/20 05:55:48;;;;;;;146.27;69.13;;;13.20;99.90;;;;;;4953942;28;20514;-89
2022/09/20 05:58:30;;;;;;;3.77;1.70;;;13.30;99.90;;;;;;4973805;28;20495;-89
2022/09/20 06:01:09;;;;;;;3.33;2.80;;;13.30;99.90;;;;;;4961380;28;20462;-90
2022/09/20 06:03:38;;;;;;;1.83;1.50;;;13.30;99.90;;;;;;4957873;28;20433;-94
2022/09/20 06:06:25;;;;;;;2.60;1.60;;;13.40;99.90;;;;;;4958757;28;20857;-95
2022/09/20 06:09:20;;;;;;;4.00;1.80;;;13.40;99.90;;;;;;4980724;28;20426;-93
2022/09/20 06:11:51;;;;;;;2.37;1.87;;;13.50;99.90;;;;;;4997032;28;20422;-94
2022/09/20 06:14:44;;;;;;;2.07;1.57;;;13.50;99.90;;;;;;4974951;28;20541;-94
2022/09/20 06:17:31;;;;;;;2.20;1.53;;;13.50;99.90;;;;;;4967203;28;20449;-94
2022/09/20 06:20:08;;;;;;;5.90;1.97;;;13.60;99.90;;;;;;4974098;28;20806;-93
2022/09/20 06:22:41;;;;;;;2.20;1.47;;;13.70;99.90;;;;;;4969470;28;20440;-94
2022/09/20 06:25:07;;;;;;;3.20;1.87;;;13.70;99.90;;;;;;4971575;28;20808;-94
2022/09/20 06:27:38;;;;;;;1.87;1.77;;;13.80;99.90;;;;;;4958641;28;20525;-95
2022/09/20 06:30:13;;;;;;;1.80;1.53;;;13.80;99.90;;;;;;4962176;28;20196;-93
2022/09/20 06:33:07;;;;;;;1.80;1.60;;;13.90;99.90;;;;;;4956787;28;20850;-93
2022/09/20 06:35:37;;;;;;;2.43;1.67;;;13.90;99.90;;;;;;4970676;28;20476;-94
2022/09/20 06:41:27;;;;;;;2.20;1.57;;;14.10;99.90;;;;;;4957011;28;20450;-94
2022/09/20 06:43:57;;;;;;;2.00;1.80;;;14.20;99.90;;;;;;4962269;28;20555;-93
2022/09/20 06:46:24;;;;;;;1.90;1.73;;;14.20;99.90;;;;;;4950212;28;20442;-93
2022/09/20 06:48:50;;;;;;;3.87;1.70;;;14.30;99.90;;;;;;4959965;28;20426;-94
2022/09/20 06:51:16;;;;;;;2.13;1.93;;;14.30;99.90;;;;;;4956438;28;20652;-94
2022/09/20 06:53:41;;;;;;;3.17;1.43;;;14.40;99.90;;;;;;4957956;28;20228;-94
2022/09/20 06:56:12;;;;;;;3.20;1.80;;;14.50;99.90;;;;;;4953831;28;20592;-95
2022/09/20 06:58:37;;;;;;;1.90;1.80;;;14.50;99.90;;;;;;4946939;28;20180;-92
2022/09/20 07:01:03;;;;;;;2.37;1.50;;;14.50;99.90;;;;;;4974067;28;20462;-93
2022/09/20 07:03:30;;;;;;;1.97;1.77;;;14.60;99.90;;;;;;4973480;28;20196;-93
2022/09/20 07:05:57;;;;;;;2.00;1.80;;;14.70;99.90;;;;;;4950620;28;20208;-94
2022/09/20 07:08:23;;;;;;;1.70;1.60;;;14.70;99.90;;;;;;4976183;28;20533;-93
2022/09/20 07:10:49;;;;;;;1.93;1.73;;;14.80;99.90;;;;;;4961010;28;20502;-93
2022/09/20 07:13:18;;;;;;;2.53;1.40;;;14.80;99.90;;;;;;4962226;28;20208;-93
2022/09/20 07:15:44;;;;;;;1.80;1.70;;;14.90;99.90;;;;;;4956050;28;20561;-93
2022/09/20 07:18:10;;;;;;;3.53;1.60;;;14.90;99.90;;;;;;4956038;28;20439;-94
2022/09/20 07:20:35;;;;;;;1.67;1.57;;;14.90;99.90;;;;;;4953552;28;20291;-94
2022/09/20 07:23:02;;;;;;;2.00;1.87;;;15.00;99.90;;;;;;4955963;28;20181;-94
2022/09/20 07:25:30;;;;;;;4.07;2.23;;;15.00;99.90;;;;;;4954583;28;20224;-95
2022/09/20 07:27:56;;;;;;;7.37;2.60;;;15.10;99.90;;;;;;4959325;28;20506;-94
2022/09/20 07:30:22;;;;;;;3.87;1.90;;;15.10;99.90;;;;;;4978661;28;20835;-94
2022/09/20 07:32:47;;;;;;;2.27;2.07;;;15.20;99.90;;;;;;4960747;28;20410;-92
2022/09/20 07:35:15;;;;;;;3.30;2.00;;;15.20;99.90;;;;;;4979207;28;20554;-95
2022/09/20 07:37:40;;;;;;;2.43;1.70;;;15.30;99.90;;;;;;4979657;28;20192;-94
2022/09/20 07:40:08;;;;;;;3.87;2.20;;;15.40;99.90;;;;;;4961075;28;20528;-94
2022/09/20 07:42:33;;;;;;;2.17;1.70;;;15.40;99.90;;;;;;4962243;28;20247;-95
2022/09/20 07:45:01;;;;;;;4.50;1.80;;;15.50;99.90;;;;;;4962134;29;20863;-95
2022/09/20 07:47:30;;;;;;;1.97;1.87;;;15.60;99.90;;;;;;4946027;28;20252;-94
2022/09/20 07:49:57;;;;;;;2.13;1.87;;;15.70;99.90;;;;;;4961587;28;20439;-95
2022/09/20 07:52:23;;;;;;;2.63;1.80;;;15.70;99.90;;;;;;4964849;28;20461;-94
2022/09/20 07:54:49;;;;;;;1.70;1.60;;;15.80;99.90;;;;;;4963663;28;20570;-94
2022/09/20 07:57:15;;;;;;;2.30;1.57;;;15.90;99.90;;;;;;4983597;28;20438;-95
2022/09/20 07:59:41;;;;;;;2.70;1.70;;;16.00;99.90;;;;;;4985330;28;20203;-95
2022/09/20 08:02:13;;;;;;;2.67;1.73;;;16.10;99.90;;;;;;4978180;28;20522;-94
2022/09/20 08:04:39;;;;;;;2.43;1.63;;;16.10;99.90;;;;;;4961481;28;20200;-94
2022/09/20 08:07:04;;;;;;;2.70;2.20;;;16.20;99.90;;;;;;4948551;29;20438;-94
2022/09/20 08:09:30;;;;;;;1.97;1.87;;;16.40;99.90;;;;;;4938229;29;20193;-95
2022/09/20 08:11:56;;;;;;;2.40;1.87;;;16.50;99.90;;;;;;4950293;28;20180;-94
2022/09/20 08:14:23;;;;;;;2.40;2.10;;;16.70;99.90;;;;;;4966164;28;20217;-94
2022/09/20 08:16:50;;;;;;;2.90;2.10;;;16.90;99.90;;;;;;4954474;28;20554;-94
2022/09/20 08:19:21;;;;;;;2.77;1.70;;;17.40;99.90;;;;;;4973907;28;20476;-94
2022/09/20 08:21:48;;;;;;;3.10;1.57;;;17.90;99.90;;;;;;4956926;28;20517;-94
2022/09/20 08:24:15;;;;;;;3.00;1.63;;;18.50;99.90;;;;;;4958004;28;20529;-94
2022/09/20 08:26:40;;;;;;;3.53;1.40;;;19.20;99.90;;;;;;4979310;28;20488;-95
2022/09/20 08:29:06;;;;;;;2.50;1.83;;;19.90;99.90;;;;;;4975683;28;21201;-95
2022/09/20 08:31:35;;;;;;;3.57;2.00;;;20.80;99.90;;;;;;4959250;28;20325;-94
2022/09/20 08:34:03;;;;;;;1.67;1.57;;;21.50;99.90;;;;;;4958046;28;20438;-95
2022/09/20 08:36:31;;;;;;;1.90;1.60;;;21.90;99.90;;;;;;4982498;28;20497;-93
2022/09/20 08:38:56;;;;;;;2.00;1.80;;;22.10;99.90;;;;;;4959883;28;20477;-95
2022/09/20 08:41:40;;;;;;;1.93;1.70;;;21.90;99.90;;;;;;4975782;28;20552;-94
2022/09/20 08:44:31;;;;;;;2.93;1.43;;;21.60;99.90;;;;;;4954874;28;21016;-95
2022/09/20 08:47:08;;;;;;;2.60;1.67;;;21.20;99.90;;;;;;4959527;28;20445;-94
2022/09/20 08:49:36;;;;;;;2.90;2.10;;;20.80;99.90;;;;;;4974466;28;20465;-95
2022/09/20 08:52:02;;;;;;;1.60;1.50;;;20.40;99.90;;;;;;4953701;28;20543;-94
2022/09/20 08:54:32;;;;;;;3.10;1.63;;;20.10;99.90;;;;;;4956397;28;20538;-93
2022/09/20 08:57:04;;;;;;;2.03;1.73;;;19.90;99.90;;;;;;4945978;28;20956;-95
2022/09/20 08:59:30;;;;;;;2.80;1.80;;;19.70;99.90;;;;;;4980055;28;20469;-94
2022/09/20 09:01:58;;;;;;;2.50;1.70;;;19.50;99.90;;;;;;4960535;28;20672;-95
2022/09/20 09:04:35;;;;;;;2.80;1.80;;;19.40;99.90;;;;;;4956273;28;20527;-93
2022/09/20 09:07:01;;;;;;;1.70;1.50;;;19.30;99.90;;;;;;4954101;28;20860;-94
2022/09/20 09:09:28;;;;;;;2.60;1.80;;;19.30;99.90;;;;;;4948310;28;20454;-94
2022/09/20 09:11:57;;;;;;;2.10;2.00;;;19.30;99.90;;;;;;4969055;28;20498;-94
2022/09/20 09:14:49;;;;;;;2.07;1.97;;;19.30;99.90;;;;;;4964591;28;20449;-94
2022/09/20 09:17:24;;;;;;;1.80;1.70;;;19.30;99.90;;;;;;4952685;28;20455;-95
2022/09/20 09:19:55;;;;;;;2.20;2.00;;;19.20;99.90;;;;;;4952967;28;20810;-94
2022/09/20 09:22:31;;;;;;;4.60;2.20;;;19.10;99.90;;;;;;4953316;28;20469;-94
2022/09/20 09:25:20;;;;;;;2.13;1.87;;;19.00;99.90;;;;;;4955064;28;20447;-94
2022/09/20 09:27:56;;;;;;;2.00;1.80;;;19.00;99.90;;;;;;4945585;28;20447;-95
2022/09/20 09:30:31;;;;;;;2.03;1.80;;;18.80;99.90;;;;;;4969851;28;20512;-94
2022/09/20 09:33:28;;;;;;;3.13;2.00;;;18.80;99.90;;;;;;4965482;28;20876;-95
2022/09/20 09:35:58;;;;;;;2.07;1.97;;;18.60;99.90;;;;;;4942037;28;20501;-94
2022/09/20 09:38:27;;;;;;;6.63;1.50;;;18.50;99.90;;;;;;4983166;28;20436;-94
2022/09/20 09:40:59;;;;;;;3.60;1.77;;;18.50;99.90;;;;;;4993915;28;20453;-96
2022/09/20 09:43:34;;;;;;;3.67;2.23;;;18.40;99.90;;;;;;4989852;28;20502;-94
2022/09/20 09:46:20;;;;;;;3.90;2.53;;;18.30;99.90;;;;;;4969702;28;20462;-93
2022/09/20 09:48:49;;;;;;;1.57;1.27;;;18.30;99.90;;;;;;4987562;28;20450;-94
2022/09/20 09:51:19;;;;;;;1.20;1.20;;;18.30;99.90;;;;;;4984404;28;20480;-93
2022/09/20 09:53:47;;;;;;;1.73;1.40;;;18.30;99.90;;;;;;4978290;28;20429;-93
2022/09/20 09:56:27;;;;;;;1.63;1.20;;;18.20;99.90;;;;;;4976478;28;20629;-94
2022/09/20 09:59:18;;;;;;;1.30;1.20;;;18.20;99.90;;;;;;4976053;28;20548;-94
2022/09/20 10:02:11;;;;;;;2.80;1.60;;;18.10;99.90;;;;;;4983170;28;20450;-94
2022/09/20 10:05:07;;;;;;;1.57;1.47;;;18.10;99.90;;;;;;4972369;28;20455;-95
2022/09/20 10:07:58;;;;;;;2.37;1.00;;;18.10;99.90;;;;;;4987313;28;20444;-93
2022/09/20 10:10:43;;;;;;;3.60;1.53;;;18.10;99.90;;;;;;5003544;28;21039;-93
2022/09/20 10:13:23;;;;;;;2.30;1.60;;;18.00;99.90;;;;;;4977518;28;20435;-95
2022/09/20 10:16:28;;;;;;;1.27;1.17;;;18.00;99.90;;;;;;4969183;28;20484;-94
2022/09/20 10:19:23;;;;;;;1.63;1.53;;;18.00;99.90;;;;;;4981166;28;20432;-94
2022/09/20 10:22:08;;;;;;;2.07;1.40;;;18.00;99.90;;;;;;4982724;28;20451;-94
2022/09/20 10:24:42;;;;;;;1.20;1.10;;;17.90;99.90;;;;;;4997539;28;20504;-94
2022/09/20 10:27:14;;;;;;;1.43;1.33;;;17.90;99.90;;;;;;4991849;28;20849;-94
2022/09/20 10:29:45;;;;;;;3.10;1.30;;;17.80;99.90;;;;;;4972014;28;20457;-94
2022/09/20 10:32:36;;;;;;;2.83;1.97;;;17.80;99.90;;;;;;4978237;28;20989;-93
2022/09/20 10:35:32;;;;;;;1.90;1.40;;;17.80;99.90;;;;;;4973303;28;20474;-95
2022/09/20 10:38:07;;;;;;;1.97;1.50;;;17.70;99.90;;;;;;4983049;28;20438;-95
2022/09/20 10:43:32;;;;;;;3.00;1.60;;;17.80;99.90;;;;;;4977180;28;20450;-95
2022/09/20 10:45:57;;;;;;;2.37;1.63;;;17.80;99.90;;;;;;4991031;28;20457;-93
2022/09/20 10:48:44;;;;;;;1.60;1.50;;;17.80;99.90;;;;;;4971805;28;20862;-93
2022/09/20 10:51:38;;;;;;;2.23;2.00;;;17.80;99.90;;;;;;5001673;28;20197;-94
2022/09/20 10:54:22;;;;;;;1.50;1.40;;;17.80;99.90;;;;;;4985188;28;20461;-94
2022/09/20 10:56:51;;;;;;;1.40;1.30;;;17.80;99.90;;;;;;4977102;28;20478;-94
2022/09/20 10:59:46;;;;;;;1.80;1.70;;;17.80;99.90;;;;;;4983559;28;21021;-94
2022/09/20 11:02:14;;;;;;;2.83;1.37;;;17.90;99.90;;;;;;4950745;28;20969;-94
2022/09/20 11:05:05;;;;;;;2.40;1.70;;;17.90;99.90;;;;;;4985433;28;20453;-93
2022/09/20 11:08:00;;;;;;;1.50;1.40;;;18.00;99.90;;;;;;4981309;28;20437;-93
2022/09/20 11:10:53;;;;;;;1.70;1.40;;;18.10;99.90;;;;;;4974163;28;20474;-93
2022/09/20 11:13:23;;;;;;;1.80;1.40;;;18.10;99.90;;;;;;4967618;28;20450;-93
2022/09/20 11:15:55;;;;;;;1.73;1.47;;;18.20;99.90;;;;;;4977826;28;20496;-93
2022/09/20 11:18:39;;;;;;;1.90;1.40;;;18.20;99.90;;;;;;4996537;28;20427;-93
2022/09/20 11:21:30;;;;;;;1.37;1.27;;;18.20;99.90;;;;;;4983676;28;20457;-92
2022/09/20 11:24:11;;;;;;;1.20;1.10;;;18.30;99.90;;;;;;4981083;28;20429;-95
2022/09/20 11:26:41;;;;;;;157.47;75.10;;;18.30;99.90;;;;;;4984937;28;20442;-95
2022/09/20 11:29:35;;;;;;;137.50;75.23;;;18.40;99.90;;;;;;4992256;28;20938;-96
2022/09/20 11:32:21;;;;;;;36.17;20.80;;;18.40;99.90;;;;;;4934077;28;20452;-92
2022/09/20 11:35:42;;;;;;;4.93;4.03;;;18.50;99.90;;;;;;4969373;28;21079;-94
2022/09/20 11:38:21;;;;;;;1.33;1.13;;;18.50;99.90;;;;;;4930269;29;20446;-95
2022/09/20 11:40:52;;;;;;;1.43;1.27;;;18.50;99.90;;;;;;4985800;28;20504;-94
2022/09/20 11:43:19;;;;;;;1.20;1.10;;;18.50;99.90;;;;;;5004482;28;20424;-95
2022/09/20 11:45:50;;;;;;;1.30;0.90;;;18.50;99.90;;;;;;4988546;28;20970;-94
2022/09/20 11:48:25;;;;;;;2.63;1.30;;;18.40;99.90;;;;;;4975846;28;20463;-94
2022/09/20 11:51:13;;;;;;;1.10;1.00;;;18.40;99.90;;;;;;5004695;28;20467;-95
2022/09/20 11:53:54;;;;;;;0.80;0.80;;;18.40;99.90;;;;;;4982805;28;20634;-94
2022/09/20 11:56:29;;;;;;;1.57;1.20;;;18.40;99.90;;;;;;4989832;28;20465;-94
2022/09/20 11:58:59;;;;;;;1.00;0.90;;;18.40;99.90;;;;;;4995399;28;20422;-94
2022/09/20 12:01:41;;;;;;;1.43;0.73;;;18.40;99.90;;;;;;5006005;28;20430;-94
2022/09/20 12:04:43;;;;;;;4.07;1.23;;;18.40;99.90;;;;;;4989918;28;20507;-92
2022/09/20 12:07:19;;;;;;;1.13;1.03;;;18.40;99.90;;;;;;4986318;28;20511;-95
2022/09/20 12:10:03;;;;;;;1.97;0.80;;;18.30;99.90;;;;;;4977711;28;20455;-93
2022/09/20 12:12:42;;;;;;;1.20;0.80;;;18.30;99.90;;;;;;4994972;28;20840;-95
2022/09/20 12:15:23;;;;;;;1.63;0.80;;;18.30;99.90;;;;;;4981320;28;20646;-93
2022/09/20 12:17:48;;;;;;;0.97;0.70;;;18.30;99.90;;;;;;4971112;28;20461;-94
2022/09/20 12:20:37;;;;;;;4.00;0.93;;;18.30;99.90;;;;;;4993258;28;20490;-93
2022/09/20 12:23:37;;;;;;;1.63;1.03;;;18.20;99.90;;;;;;4990031;28;20194;-95
2022/09/20 12:26:09;;;;;;;0.70;0.70;;;18.20;99.90;;;;;;4978085;28;20481;-93
2022/09/20 12:28:51;;;;;;;1.93;0.97;;;18.20;99.90;;;;;;4984110;28;20470;-93
2022/09/20 12:31:17;;;;;;;0.83;0.80;;;18.20;99.90;;;;;;4987175;28;20952;-95
2022/09/20 12:34:11;;;;;;;1.43;0.90;;;18.30;99.90;;;;;;4975286;28;20450;-92
2022/09/20 12:36:45;;;;;;;3.23;1.13;;;18.30;99.90;;;;;;4971708;28;20252;-94
2022/09/20 12:39:11;;;;;;;2.30;0.90;;;18.30;99.90;;;;;;4969238;28;20469;-95
2022/09/20 12:41:57;;;;;;;1.40;1.30;;;18.30;99.90;;;;;;4976447;28;20443;-92
2022/09/20 12:44:35;;;;;;;1.03;1.00;;;18.30;99.90;;;;;;4976470;28;20300;-93
2022/09/20 12:47:02;;;;;;;1.20;1.10;;;18.30;99.90;;;;;;4977440;28;20442;-93
2022/09/20 12:52:52;;;;;;;0.80;0.80;;;18.20;99.90;;;;;;4993878;28;20446;-95
2022/09/20 12:55:45;;;;;;;3.50;1.27;;;18.20;99.90;;;;;;4911735;29;20474;-93
2022/09/20 12:58:12;;;;;;;1.07;0.80;;;18.10;99.90;;;;;;4909209;29;20457;-93
2022/09/20 13:00:59;;;;;;;1.10;1.00;;;18.10;99.90;;;;;;4954304;28;20469;-93
2022/09/20 13:03:37;;;;;;;1.10;0.97;;;18.10;99.90;;;;;;4987977;28;20501;-93
2022/09/20 13:06:05;;;;;;;1.97;1.20;;;18.10;99.90;;;;;;4984064;28;21072;-93
2022/09/20 13:08:45;;;;;;;1.30;0.70;;;18.00;99.90;;;;;;4992512;28;20407;-94
2022/09/20 13:11:18;;;;;;;1.07;0.77;;;18.10;99.90;;;;;;4979961;28;20451;-95
2022/09/20 13:13:59;;;;;;;0.40;0.40;;;18.10;99.90;;;;;;4972127;28;20441;-96
2022/09/20 13:16:45;;;;;;;0.50;0.40;;;18.10;99.90;;;;;;4970850;28;20479;-93
2022/09/20 13:19:48;;;;;;;0.90;0.50;;;18.10;99.90;;;;;;4991186;28;20457;-95
2022/09/20 13:22:36;;;;;;;0.80;0.80;;;18.20;99.90;;;;;;4913734;29;20705;-93
2022/09/20 13:25:05;;;;;;;2.43;0.97;;;18.20;99.90;;;;;;5000300;28;20449;-95
2022/09/20 13:27:39;;;;;;;1.10;1.00;;;18.20;99.90;;;;;;4978513;28;20423;-94
2022/09/20 13:30:20;;;;;;;1.47;0.80;;;18.20;99.90;;;;;;4966953;28;20549;-95
2022/09/20 13:32:48;;;;;;;2.60;1.47;;;18.20;99.90;;;;;;4989915;28;20431;-92
2022/09/20 13:35:15;;;;;;;1.27;1.17;;;18.20;99.90;;;;;;4972641;28;20473;-94
2022/09/20 13:37:52;;;;;;;1.20;1.10;;;18.20;99.90;;;;;;4976198;28;20430;-93
2022/09/20 13:40:32;;;;;;;0.80;0.80;;;18.20;99.90;;;;;;4993221;28;20481;-93
2022/09/20 13:43:04;;;;;;;1.13;0.60;;;18.20;99.90;;;;;;4969059;28;20502;-93
2022/09/20 13:45:33;;;;;;;2.30;1.00;;;18.10;99.90;;;;;;4962038;28;20843;-93
2022/09/20 13:48:02;;;;;;;2.87;1.03;;;18.10;99.90;;;;;;4995374;28;20441;-94
2022/09/20 13:50:33;;;;;;;2.10;1.17;;;18.10;99.90;;;;;;4987977;28;20446;-93